Terminal Aerodrome Forecast
Issued by NWS Albany, NY

Home | Current Version | Previous Version | Text Only | Print | Product List | Glossary On
Versions: 1 2 3 4 5 6 7 8 9 10 11 12 13 14 15 16 17 18 19 20 21 22 23
582
FTUS41 KALY 271734
TAFGFL
TAF
KGFL 271734Z 2718/2818 17008KT P6SM VCSH BKN060
      TEMPO 2718/2721 3SM -SHRA BR OVC020
     FM272100 23008KT P6SM VCTS BKN050CB
      TEMPO 2721/2723 3SM -TSRA BR BKN025CB
     FM272300 23007KT P6SM VCSH SCT090
     FM280100 23006KT P6SM SCT090
     FM280800 22003KT 3SM BR SCT003
     FM281100 24005KT P6SM SCT150
     FM281500 23008KT P6SM BKN050=

USA.gov is the U.S. government's official web portal to all federal, state and local government web resources and services.